createdAt,value
2022-11-03T00:01:55.585Z,100.00
2022-11-03T00:04:22.905Z,100.00
2022-11-03T00:06:51.367Z,100.00
2022-11-03T00:09:18.810Z,100.00
2022-11-03T00:11:46.848Z,100.00
2022-11-03T00:14:14.695Z,100.00
2022-11-03T00:16:41.147Z,100.00
2022-11-03T00:19:08.410Z,100.00
2022-11-03T00:21:34.680Z,100.00
2022-11-03T00:24:02.853Z,100.00
2022-11-03T00:26:31.288Z,100.00
2022-11-03T00:29:02.616Z,100.00
2022-11-03T00:31:34.797Z,100.00
2022-11-03T00:34:02.230Z,100.00
2022-11-03T00:36:30.869Z,100.00
2022-11-03T00:38:57.363Z,100.00
2022-11-03T00:41:24.437Z,100.00
2022-11-03T00:43:51.561Z,100.00
2022-11-03T00:46:19.251Z,100.00
2022-11-03T00:48:45.366Z,100.00
2022-11-03T00:51:23.351Z,100.00
2022-11-03T00:53:58.339Z,100.00
2022-11-03T00:56:33.366Z,100.00
2022-11-03T00:59:01.626Z,100.00
2022-11-03T01:01:33.126Z,100.00
2022-11-03T01:04:18.115Z,100.00
2022-11-03T01:06:50.257Z,100.00
2022-11-03T01:09:22.164Z,100.00
2022-11-03T01:12:11.444Z,100.00
2022-11-03T01:14:52.041Z,100.00
2022-11-03T01:17:26.511Z,100.00
2022-11-03T01:19:53.354Z,100.00
2022-11-03T01:22:20.046Z,100.00
2022-11-03T01:24:47.049Z,100.00
2022-11-03T01:27:16.143Z,100.00
2022-11-03T01:29:42.406Z,100.00
2022-11-03T01:32:09.111Z,100.00
2022-11-03T01:34:35.539Z,100.00
2022-11-03T01:37:01.967Z,100.00
2022-11-03T01:39:28.344Z,100.00
2022-11-03T01:41:54.641Z,100.00
2022-11-03T01:44:26.694Z,100.00
2022-11-03T01:47:25.200Z,100.00
2022-11-03T01:49:58.180Z,100.00
2022-11-03T01:52:54.753Z,100.00
2022-11-03T01:55:24.788Z,100.00
2022-11-03T01:57:55.972Z,100.00
2022-11-03T02:00:22.167Z,100.00
2022-11-03T02:02:48.442Z,100.00
2022-11-03T02:05:19.703Z,100.00
2022-11-03T02:07:57.007Z,100.00
2022-11-03T02:10:24.041Z,100.00
2022-11-03T02:12:50.237Z,100.00
2022-11-03T02:15:19.272Z,100.00
2022-11-03T02:17:47.924Z,100.00
2022-11-03T02:20:19.653Z,100.00
2022-11-03T02:22:51.553Z,100.00
2022-11-03T02:25:37.834Z,100.00
2022-11-03T02:28:05.825Z,100.00
2022-11-03T02:30:39.042Z,100.00
2022-11-03T02:33:18.545Z,100.00
2022-11-03T02:36:05.369Z,100.00
2022-11-03T02:38:36.362Z,100.00
2022-11-03T02:41:07.678Z,100.00
2022-11-03T02:43:34.726Z,100.00
2022-11-03T02:46:04.636Z,100.00
2022-11-03T02:48:30.823Z,100.00
2022-11-03T02:50:56.984Z,100.00
2022-11-03T02:53:23.110Z,100.00
2022-11-03T02:56:01.652Z,100.00
2022-11-03T02:58:38.581Z,100.00
2022-11-03T03:01:48.439Z,100.00
2022-11-03T03:04:24.482Z,100.00
2022-11-03T03:07:04.756Z,100.00
2022-11-03T03:09:37.370Z,100.00
2022-11-03T03:12:05.269Z,100.00
2022-11-03T03:14:37.128Z,100.00
2022-11-03T03:17:13.602Z,100.00
2022-11-03T03:19:56.651Z,100.00
2022-11-03T03:22:45.815Z,100.00
2022-11-03T03:25:17.955Z,100.00
2022-11-03T03:27:49.472Z,100.00
2022-11-03T03:30:17.429Z,100.00
2022-11-03T03:32:47.518Z,100.00
2022-11-03T03:35:21.148Z,100.00
2022-11-03T03:37:51.072Z,100.00
2022-11-03T03:40:23.304Z,100.00
2022-11-03T03:42:51.743Z,100.00
2022-11-03T03:45:19.513Z,100.00
2022-11-03T03:47:46.830Z,100.00
2022-11-03T03:50:13.240Z,100.00
2022-11-03T03:52:39.434Z,100.00
2022-11-03T03:55:12.522Z,100.00
2022-11-03T03:57:38.654Z,100.00
2022-11-03T04:00:06.381Z,100.00
2022-11-03T04:02:38.520Z,100.00
2022-11-03T04:05:05.112Z,100.00
2022-11-03T04:07:49.823Z,100.00
2022-11-03T04:10:21.742Z,100.00
2022-11-03T04:13:07.016Z,100.00
2022-11-03T04:15:51.955Z,100.00
2022-11-03T04:18:40.500Z,100.00
2022-11-03T04:21:25.627Z,100.00
2022-11-03T04:23:53.253Z,100.00
2022-11-03T04:26:23.076Z,100.00
2022-11-03T04:28:50.625Z,100.00
2022-11-03T04:31:18.103Z,100.00
2022-11-03T04:33:44.918Z,100.00
2022-11-03T04:36:19.443Z,100.00
2022-11-03T04:38:46.005Z,100.00
2022-11-03T04:41:21.407Z,100.00
2022-11-03T04:43:48.220Z,100.00
2022-11-03T04:46:17.916Z,100.00
2022-11-03T04:48:44.683Z,100.00
2022-11-03T04:51:17.167Z,100.00
2022-11-03T04:54:18.679Z,100.00
2022-11-03T04:56:44.846Z,100.00
2022-11-03T04:59:12.943Z,100.00
2022-11-03T05:01:39.147Z,100.00
2022-11-03T05:04:12.597Z,100.00
2022-11-03T05:06:38.758Z,100.00
2022-11-03T05:09:17.958Z,100.00
2022-11-03T05:11:46.143Z,100.00
2022-11-03T05:14:18.820Z,100.00
2022-11-03T05:16:45.265Z,100.00
2022-11-03T05:19:22.653Z,100.00
2022-11-03T05:21:50.581Z,100.00
2022-11-03T05:24:21.188Z,100.00
2022-11-03T05:26:48.463Z,100.00
2022-11-03T05:29:18.823Z,100.00
2022-11-03T05:31:47.983Z,100.00
2022-11-03T05:34:36.296Z,100.00
2022-11-03T05:37:26.848Z,100.00
2022-11-03T05:39:56.859Z,100.00
2022-11-03T05:42:22.900Z,100.00
2022-11-03T05:44:51.722Z,100.00
2022-11-03T05:47:24.468Z,100.00
2022-11-03T05:49:56.527Z,100.00
2022-11-03T05:52:25.328Z,100.00
2022-11-03T05:54:53.501Z,100.00
2022-11-03T05:57:20.210Z,100.00
2022-11-03T05:59:49.094Z,100.00
2022-11-03T06:02:38.507Z,100.00
2022-11-03T06:05:20.065Z,100.00
2022-11-03T06:07:47.432Z,100.00
2022-11-03T06:10:31.356Z,100.00
2022-11-03T06:13:04.821Z,100.00
2022-11-03T06:15:34.206Z,100.00
2022-11-03T06:18:02.889Z,100.00
2022-11-03T06:20:29.220Z,100.00
2022-11-03T06:22:57.459Z,100.00
2022-11-03T06:25:32.822Z,100.00
2022-11-03T06:28:06.581Z,100.00
2022-11-03T06:30:36.043Z,100.00
2022-11-03T06:33:11.091Z,100.00
2022-11-03T06:35:37.231Z,100.00
2022-11-03T06:38:03.344Z,100.00
2022-11-03T06:40:34.126Z,100.00
2022-11-03T06:43:08.763Z,100.00
2022-11-03T06:45:35.029Z,100.00
2022-11-03T06:48:02.775Z,100.00
2022-11-03T06:50:31.742Z,100.00
2022-11-03T06:52:59.580Z,100.00
2022-11-03T06:55:28.308Z,100.00
2022-11-03T06:58:23.528Z,100.00
2022-11-03T07:00:51.692Z,100.00
2022-11-03T07:03:23.141Z,100.00
2022-11-03T07:05:49.307Z,100.00
2022-11-03T07:08:35.324Z,100.00
2022-11-03T07:11:01.408Z,100.00
2022-11-03T07:13:28.498Z,100.00
2022-11-03T07:15:54.696Z,100.00
2022-11-03T07:18:38.833Z,100.00
2022-11-03T07:21:26.001Z,100.00
2022-11-03T07:23:52.449Z,100.00
2022-11-03T07:26:18.760Z,100.00
2022-11-03T07:28:44.872Z,100.00
2022-11-03T07:31:18.928Z,100.00
2022-11-03T07:33:45.525Z,100.00
2022-11-03T07:36:19.714Z,100.00
2022-11-03T07:38:50.565Z,100.00
2022-11-03T07:41:22.191Z,100.00
2022-11-03T07:43:53.818Z,100.00
2022-11-03T07:46:21.551Z,100.00
2022-11-03T07:48:49.349Z,100.00
2022-11-03T07:51:28.653Z,100.00
2022-11-03T07:54:09.377Z,100.00
2022-11-03T07:56:43.310Z,100.00
2022-11-03T07:59:09.401Z,100.00
2022-11-03T08:01:40.580Z,100.00
2022-11-03T08:04:20.025Z,100.00
2022-11-03T08:06:46.357Z,100.00
2022-11-03T08:09:12.865Z,100.00
2022-11-03T08:11:39.542Z,100.00
2022-11-03T08:14:05.657Z,100.00
2022-11-03T08:16:31.809Z,100.00
2022-11-03T08:18:57.930Z,100.00
2022-11-03T08:21:24.180Z,100.00
2022-11-03T08:23:50.882Z,100.00
2022-11-03T08:26:17.003Z,100.00
2022-11-03T08:28:43.127Z,100.00
2022-11-03T08:31:12.681Z,100.00
2022-11-03T08:33:39.659Z,100.00
2022-11-03T08:36:06.099Z,100.00
2022-11-03T08:38:32.450Z,100.00
2022-11-03T08:40:58.844Z,100.00
2022-11-03T08:43:25.155Z,100.00
2022-11-03T08:45:53.757Z,100.00
2022-11-03T08:48:21.040Z,100.00
2022-11-03T08:50:48.102Z,100.00
2022-11-03T08:53:14.226Z,100.00
2022-11-03T08:55:40.336Z,100.00
2022-11-03T08:58:07.257Z,100.00
2022-11-03T09:00:38.305Z,100.00
2022-11-03T09:03:06.798Z,100.00
2022-11-03T09:05:32.942Z,100.00
2022-11-03T09:10:45.927Z,99.97
2022-11-03T09:13:12.030Z,99.07
2022-11-03T09:15:38.169Z,98.21
2022-11-03T09:18:04.594Z,97.16
2022-11-03T09:20:31.679Z,96.11
2022-11-03T09:22:57.951Z,95.36
2022-11-03T09:25:24.077Z,94.65
2022-11-03T09:27:50.185Z,94.22
2022-11-03T09:30:17.788Z,94.40
2022-11-03T09:32:44.553Z,93.01
2022-11-03T09:35:12.005Z,92.14
2022-11-03T09:37:38.109Z,91.82
2022-11-03T09:40:04.555Z,91.38
2022-11-03T09:42:34.403Z,90.51
2022-11-03T09:45:01.601Z,89.63
2022-11-03T09:47:34.179Z,89.09
2022-11-03T09:50:00.965Z,87.81
2022-11-03T09:52:27.275Z,87.68
2022-11-03T09:54:55.673Z,88.31
2022-11-03T09:57:23.039Z,87.32
2022-11-03T09:59:50.793Z,86.93
2022-11-03T10:02:29.846Z,85.68
2022-11-03T10:04:58.115Z,85.26
2022-11-03T10:07:26.819Z,84.85
2022-11-03T10:09:54.715Z,85.11
2022-11-03T10:12:24.061Z,84.81
2022-11-03T10:14:51.071Z,84.44
2022-11-03T10:17:25.911Z,83.61
2022-11-03T10:19:55.660Z,82.84
2022-11-03T10:22:22.403Z,81.02
2022-11-03T10:24:48.995Z,78.78
2022-11-03T10:27:23.582Z,77.40
2022-11-03T10:30:08.210Z,77.60
2022-11-03T10:32:34.925Z,76.38
2022-11-03T10:35:01.150Z,76.34
2022-11-03T10:37:28.383Z,75.45
2022-11-03T10:39:56.789Z,71.33
2022-11-03T10:42:35.036Z,71.97
2022-11-03T10:45:15.620Z,71.21
2022-11-03T10:47:41.747Z,71.16
2022-11-03T10:50:25.795Z,70.24
2022-11-03T10:52:52.409Z,69.97
2022-11-03T10:55:24.862Z,69.66
2022-11-03T10:57:53.375Z,67.66
2022-11-03T11:00:19.927Z,67.27
2022-11-03T11:02:47.766Z,66.38
2022-11-03T11:05:21.628Z,65.20
2022-11-03T11:07:51.324Z,65.54
2022-11-03T11:10:26.916Z,64.54
2022-11-03T11:13:05.385Z,65.34
2022-11-03T11:15:58.064Z,63.86
2022-11-03T11:18:30.390Z,64.05
2022-11-03T11:20:57.440Z,63.46
2022-11-03T11:23:29.443Z,63.28
2022-11-03T11:26:05.931Z,63.56
2022-11-03T11:28:32.116Z,63.63
2022-11-03T11:30:58.946Z,62.20
2022-11-03T11:33:27.612Z,60.81
2022-11-03T11:35:58.773Z,61.95
2022-11-03T11:38:52.292Z,61.81
2022-11-03T11:41:20.850Z,62.31
2022-11-03T11:43:46.973Z,61.66
2022-11-03T11:46:22.326Z,61.60
2022-11-03T11:48:57.231Z,61.76
2022-11-03T11:51:24.716Z,61.91
2022-11-03T11:54:10.008Z,61.76
2022-11-03T11:56:44.163Z,61.87
2022-11-03T11:59:25.675Z,61.17
2022-11-03T12:01:54.945Z,60.62
2022-11-03T12:04:33.202Z,59.89
2022-11-03T12:06:59.610Z,61.01
2022-11-03T12:09:30.521Z,60.10
2022-11-03T12:12:00.795Z,59.99
2022-11-03T12:14:38.458Z,60.00
2022-11-03T12:17:17.172Z,60.18
2022-11-03T12:19:45.009Z,60.18
2022-11-03T12:22:32.212Z,61.60
2022-11-03T12:25:04.767Z,61.47
2022-11-03T12:27:30.813Z,61.93
2022-11-03T12:29:59.594Z,62.28
2022-11-03T12:32:33.452Z,62.07
2022-11-03T12:35:02.076Z,62.07
2022-11-03T12:37:28.239Z,61.66
2022-11-03T12:39:54.341Z,62.30
2022-11-03T12:42:21.211Z,62.84
2022-11-03T12:44:47.341Z,62.34
2022-11-03T12:47:13.485Z,62.77
2022-11-03T12:49:39.624Z,62.43
2022-11-03T12:52:08.240Z,63.15
2022-11-03T12:54:34.625Z,63.09
2022-11-03T12:57:00.898Z,63.95
2022-11-03T12:59:27.025Z,64.44
2022-11-03T13:01:53.241Z,64.17
2022-11-03T13:04:19.445Z,64.26
2022-11-03T13:06:45.856Z,64.59
2022-11-03T13:09:11.993Z,64.70
2022-11-03T13:11:56.814Z,64.99
2022-11-03T13:14:22.987Z,65.04
2022-11-03T13:16:49.098Z,65.55
2022-11-03T13:19:15.603Z,66.21
2022-11-03T13:21:42.376Z,66.18
2022-11-03T13:24:08.492Z,66.79
2022-11-03T13:26:34.701Z,66.92
2022-11-03T13:29:01.020Z,67.19
2022-11-03T13:31:27.240Z,67.28
2022-11-03T13:33:53.377Z,67.28
2022-11-03T13:36:19.563Z,67.42
2022-11-03T13:38:45.910Z,67.90
2022-11-03T13:41:12.061Z,67.79
2022-11-03T13:43:38.174Z,68.53
2022-11-03T13:46:05.283Z,68.99
2022-11-03T13:51:19.072Z,69.80
2022-11-03T13:56:32.121Z,69.64
2022-11-03T14:01:45.088Z,70.31
2022-11-03T14:06:58.126Z,71.08
2022-11-03T14:09:24.992Z,71.31
2022-11-03T14:12:09.959Z,70.91
2022-11-03T14:14:36.088Z,71.57
2022-11-03T14:17:02.218Z,71.64
2022-11-03T14:19:36.468Z,72.26
2022-11-03T14:22:02.868Z,72.60
2022-11-03T14:24:29.000Z,72.35
2022-11-03T14:26:55.122Z,73.44
2022-11-03T14:29:21.281Z,73.62
2022-11-03T14:31:47.409Z,74.03
2022-11-03T14:34:13.567Z,74.15
2022-11-03T14:36:39.715Z,74.46
2022-11-03T14:39:05.896Z,74.95
2022-11-03T14:41:50.746Z,74.91
2022-11-03T14:44:16.862Z,75.31
2022-11-03T14:46:43.029Z,75.87
2022-11-03T14:49:09.264Z,76.22
2022-11-03T14:51:35.670Z,76.88
2022-11-03T14:54:01.789Z,76.96
2022-11-03T14:56:27.910Z,78.02
2022-11-03T14:58:54.041Z,78.45
2022-11-03T15:01:20.873Z,78.74
2022-11-03T15:03:47.356Z,80.09
2022-11-03T15:06:13.807Z,80.51
2022-11-03T15:08:39.901Z,81.91
2022-11-03T15:11:10.645Z,82.15
2022-11-03T15:13:41.723Z,82.90
2022-11-03T15:16:12.108Z,83.75
2022-11-03T15:18:38.208Z,84.30
2022-11-03T15:21:04.938Z,84.80
2022-11-03T15:26:17.147Z,85.93
2022-11-03T15:28:43.249Z,87.06
2022-11-03T15:31:09.421Z,87.62
2022-11-03T15:33:35.516Z,88.00
2022-11-03T15:36:01.785Z,88.65
2022-11-03T15:38:27.934Z,89.11
2022-11-03T15:40:54.039Z,89.32
2022-11-03T15:43:20.159Z,90.05
2022-11-03T15:45:46.262Z,90.98
2022-11-03T15:48:12.741Z,91.73
2022-11-03T15:50:39.430Z,92.02
2022-11-03T15:53:05.545Z,92.80
2022-11-03T15:55:31.663Z,93.79
2022-11-03T15:57:57.771Z,94.26
2022-11-03T16:00:23.912Z,94.21
2022-11-03T16:02:50.225Z,95.01
2022-11-03T16:05:19.771Z,95.23
2022-11-03T16:07:49.989Z,95.55
2022-11-03T16:10:16.160Z,96.23
2022-11-03T16:12:43.998Z,97.13
2022-11-03T16:45:39.835Z,100.00
2022-11-03T16:48:07.070Z,100.00
2022-11-03T16:50:33.878Z,100.00
2022-11-03T16:52:59.983Z,99.95
2022-11-03T16:55:26.166Z,99.81
2022-11-03T16:57:52.255Z,99.54
2022-11-03T17:00:19.905Z,99.11
2022-11-03T17:02:47.069Z,98.84
2022-11-03T17:05:14.231Z,98.59
2022-11-03T17:07:40.315Z,98.25
2022-11-03T17:10:08.120Z,98.07
2022-11-03T17:12:34.246Z,97.98
2022-11-03T17:15:00.384Z,97.60
2022-11-03T17:17:26.539Z,97.64
2022-11-03T17:19:52.643Z,97.19
2022-11-03T17:22:20.292Z,96.92
2022-11-03T17:24:46.385Z,96.62
2022-11-03T17:27:16.640Z,96.73
2022-11-03T17:29:47.908Z,96.48
2022-11-03T17:32:18.603Z,96.09
2022-11-03T17:34:44.701Z,96.39
2022-11-03T17:37:10.923Z,96.01
2022-11-03T17:39:39.118Z,95.95
2022-11-03T17:42:18.020Z,96.18
2022-11-03T17:44:45.791Z,96.30
2022-11-03T17:47:11.904Z,96.53
2022-11-03T17:49:38.133Z,96.68
2022-11-03T17:52:04.771Z,96.53
2022-11-03T17:54:32.015Z,96.51
2022-11-03T17:57:00.241Z,96.15
2022-11-03T17:59:26.537Z,95.39
2022-11-03T18:01:53.168Z,95.21
2022-11-03T18:04:19.395Z,94.89
2022-11-03T18:06:45.560Z,94.38
2022-11-03T18:09:11.668Z,94.22
2022-11-03T18:12:18.583Z,94.22
2022-11-03T18:14:44.677Z,94.14
2022-11-03T18:17:10.810Z,93.92
2022-11-03T18:19:36.912Z,93.91
2022-11-03T18:22:03.254Z,93.86
2022-11-03T18:24:29.374Z,93.83
2022-11-03T18:26:55.543Z,93.90
2022-11-03T18:29:21.646Z,93.97
2022-11-03T18:31:50.491Z,94.04
2022-11-03T18:34:24.021Z,94.12
2022-11-03T18:36:50.401Z,94.28
2022-11-03T18:39:23.113Z,94.09
2022-11-03T18:41:49.255Z,94.37
2022-11-03T18:44:25.195Z,94.35
2022-11-03T18:46:53.085Z,94.35
2022-11-03T18:49:19.798Z,94.44
2022-11-03T18:52:02.894Z,93.85
2022-11-03T18:54:31.499Z,93.48
2022-11-03T18:56:58.122Z,93.11
2022-11-03T18:59:37.674Z,92.98
2022-11-03T19:02:15.089Z,93.05
2022-11-03T19:04:41.268Z,92.83
2022-11-03T19:07:11.667Z,92.33
2022-11-03T19:09:37.819Z,91.71
2022-11-03T19:12:04.195Z,91.60
2022-11-03T19:14:33.180Z,91.41
2022-11-03T19:17:21.808Z,90.92
2022-11-03T19:19:47.928Z,90.65
2022-11-03T19:22:20.579Z,90.82
2022-11-03T19:24:46.969Z,90.53
2022-11-03T19:27:27.351Z,90.48
2022-11-03T19:29:54.653Z,90.63
2022-11-03T19:32:32.826Z,90.55
2022-11-03T19:35:14.637Z,90.29
2022-11-03T19:37:40.836Z,89.96
2022-11-03T19:40:09.302Z,89.86
2022-11-03T19:42:37.114Z,89.65
2022-11-03T19:45:07.689Z,89.87
2022-11-03T19:47:47.863Z,89.85
2022-11-03T19:50:26.365Z,89.86
2022-11-03T19:53:02.599Z,90.06
2022-11-03T19:55:32.496Z,90.04
2022-11-03T19:58:12.444Z,90.26
2022-11-03T20:00:38.545Z,90.14
2022-11-03T20:03:04.750Z,90.09
2022-11-03T20:05:31.342Z,90.23
2022-11-03T20:08:03.591Z,90.32
2022-11-03T20:10:31.869Z,90.54
2022-11-03T20:13:01.615Z,90.48
2022-11-03T20:15:27.718Z,90.73
2022-11-03T20:17:54.197Z,91.48
2022-11-03T20:20:26.554Z,91.18
2022-11-03T20:22:55.704Z,91.68
2022-11-03T20:25:27.993Z,92.27
2022-11-03T20:27:56.230Z,93.06
2022-11-03T20:30:23.915Z,93.34
2022-11-03T20:32:51.071Z,94.08
2022-11-03T20:35:23.036Z,94.23
2022-11-03T20:37:53.272Z,94.83
2022-11-03T20:40:22.703Z,95.30
2022-11-03T20:42:55.441Z,95.71
2022-11-03T20:45:23.252Z,95.76
2022-11-03T20:47:50.112Z,96.05
2022-11-03T20:50:20.818Z,96.24
2022-11-03T20:52:48.140Z,96.44
2022-11-03T20:55:20.064Z,96.79
2022-11-03T20:57:47.161Z,96.99
2022-11-03T21:00:21.764Z,97.27
2022-11-03T21:02:49.580Z,97.35
2022-11-03T21:05:27.144Z,97.17
2022-11-03T21:07:55.083Z,97.41
2022-11-03T21:10:23.246Z,98.01
2022-11-03T21:12:49.817Z,98.01
2022-11-03T21:15:48.160Z,99.06
2022-11-03T21:18:42.396Z,99.50
2022-11-03T21:21:11.157Z,99.68
2022-11-03T21:23:37.618Z,99.83
2022-11-03T21:26:03.827Z,99.78
2022-11-03T21:28:30.086Z,99.96
2022-11-03T21:30:56.810Z,100.00
2022-11-03T21:33:23.691Z,100.00
2022-11-03T21:35:50.659Z,100.00
2022-11-03T21:38:17.847Z,100.00
2022-11-03T21:40:56.321Z,100.00
2022-11-03T21:43:41.429Z,100.00
2022-11-03T21:46:09.632Z,100.00
2022-11-03T21:48:55.714Z,100.00
2022-11-03T21:51:22.331Z,100.00
2022-11-03T21:53:49.144Z,100.00
2022-11-03T21:56:16.002Z,100.00
2022-11-03T21:58:42.791Z,100.00
2022-11-03T22:01:09.733Z,100.00
2022-11-03T22:03:37.167Z,100.00
2022-11-03T22:06:08.649Z,100.00
2022-11-03T22:08:35.748Z,100.00
2022-11-03T22:11:21.345Z,100.00
2022-11-03T22:13:54.220Z,100.00
2022-11-03T22:16:39.487Z,100.00
2022-11-03T22:19:38.410Z,100.00
2022-11-03T22:22:33.875Z,100.00
2022-11-03T22:25:19.095Z,100.00
2022-11-03T22:27:45.393Z,100.00
2022-11-03T22:30:30.337Z,100.00
2022-11-03T22:32:57.893Z,100.00
2022-11-03T22:35:43.812Z,100.00
2022-11-03T22:38:14.097Z,100.00
2022-11-03T22:41:00.141Z,100.00
2022-11-03T22:43:45.191Z,100.00
2022-11-03T22:46:13.131Z,100.00
2022-11-03T22:48:39.881Z,100.00
2022-11-03T22:51:06.085Z,100.00
2022-11-03T22:53:52.713Z,100.00
2022-11-03T22:56:19.988Z,100.00
2022-11-03T22:58:46.190Z,100.00
2022-11-03T23:01:15.610Z,100.00
2022-11-03T23:03:44.461Z,100.00
2022-11-03T23:06:13.642Z,100.00
2022-11-03T23:08:42.418Z,100.00
2022-11-03T23:11:20.706Z,100.00
2022-11-03T23:13:52.281Z,100.00
2022-11-03T23:16:21.122Z,100.00
2022-11-03T23:19:06.571Z,100.00
2022-11-03T23:21:34.142Z,100.00
2022-11-03T23:24:19.061Z,100.00
2022-11-03T23:26:45.879Z,100.00
2022-11-03T23:29:13.520Z,100.00
2022-11-03T23:31:41.169Z,100.00
2022-11-03T23:34:08.974Z,100.00
2022-11-03T23:36:35.327Z,100.00
2022-11-03T23:39:02.169Z,100.00
2022-11-03T23:41:28.977Z,100.00
2022-11-03T23:43:56.180Z,100.00
2022-11-03T23:46:43.515Z,100.00
2022-11-03T23:49:10.214Z,100.00
2022-11-03T23:51:37.127Z,100.00
2022-11-03T23:54:05.120Z,100.00
2022-11-03T23:56:53.980Z,100.00
2022-11-03T23:59:20.463Z,100.00
